Time;durP1;ratioP1;P1;durP2;ratioP2;P2;SDS_P1;SDS_P2;PMS_P1;PMS_P2;Temp;Humidity;BMP_temperature;BMP_pressure;BME280_temperature;BME280_humidity;BME280_pressure;Samples;Min_cycle;Max_cycle;Signal;HPM_P1;HPM_P2
2022/12/21 00:01:08;;;;;;;32.53;21.48;;;22.30;42.30;;;;;;6091709;28;84020;-64
2022/12/21 00:04:08;;;;;;;32.28;21.02;;;22.30;42.10;;;;;;6082489;28;82978;-63
2022/12/21 00:07:09;;;;;;;35.38;21.92;;;22.30;41.90;;;;;;6085275;28;87642;-65
2022/12/21 00:10:10;;;;;;;34.90;21.08;;;22.30;41.80;;;;;;6097383;28;84213;-67
2022/12/21 00:13:10;;;;;;;32.53;20.55;;;22.30;41.90;;;;;;6096102;28;83697;-67
2022/12/21 00:16:11;;;;;;;32.15;20.25;;;22.30;42.20;;;;;;6102944;28;83962;-64
2022/12/21 00:19:11;;;;;;;31.13;20.50;;;22.30;42.20;;;;;;6088533;28;83530;-65
2022/12/21 00:22:12;;;;;;;30.90;19.95;;;22.30;42.30;;;;;;6100978;28;82891;-64
2022/12/21 00:25:13;;;;;;;32.97;20.13;;;22.30;42.30;;;;;;6090329;28;83880;-65
2022/12/21 00:28:13;;;;;;;27.20;17.98;;;22.30;42.30;;;;;;6089712;28;86443;-65
2022/12/21 00:31:14;;;;;;;30.02;19.38;;;22.30;43.10;;;;;;6093968;28;84709;-66
2022/12/21 00:34:17;;;;;;;26.85;17.77;;;22.30;42.50;;;;;;6102630;28;84504;-65
2022/12/21 00:37:18;;;;;;;29.70;18.35;;;22.30;42.80;;;;;;6091540;28;84317;-62
2022/12/21 00:40:18;;;;;;;28.48;18.50;;;22.30;42.80;;;;;;6087890;28;83461;-72
2022/12/21 00:43:19;;;;;;;28.95;18.23;;;22.30;43.00;;;;;;6084434;28;83227;-70
2022/12/21 00:46:19;;;;;;;26.67;16.88;;;22.30;42.70;;;;;;6090245;28;83298;-68
2022/12/21 00:49:20;;;;;;;29.85;17.83;;;22.20;42.80;;;;;;6091941;28;83336;-72
2022/12/21 00:52:20;;;;;;;29.30;17.35;;;22.20;42.80;;;;;;6086037;28;84070;-72
2022/12/21 00:55:21;;;;;;;28.33;17.35;;;22.20;42.90;;;;;;6102388;28;90057;-69
2022/12/21 00:58:21;;;;;;;27.77;17.00;;;22.20;42.80;;;;;;6075573;28;85095;-62
2022/12/21 01:01:22;;;;;;;25.17;16.80;;;22.20;42.70;;;;;;6077325;28;83940;-61
2022/12/21 01:04:23;;;;;;;28.27;17.15;;;22.20;42.70;;;;;;6080339;28;84578;-61
2022/12/21 01:07:23;;;;;;;30.75;19.02;;;22.20;42.60;;;;;;6067166;28;83383;-60
2022/12/21 01:10:24;;;;;;;28.92;18.35;;;22.20;42.40;;;;;;6067473;28;83160;-62
2022/12/21 01:13:24;;;;;;;29.15;18.88;;;22.20;42.10;;;;;;6064875;28;83297;-61
2022/12/21 01:16:25;;;;;;;31.65;19.15;;;22.20;42.10;;;;;;6055164;28;83425;-68
2022/12/21 01:19:25;;;;;;;32.53;19.02;;;22.20;42.10;;;;;;6057353;28;82809;-67
2022/12/21 01:22:26;;;;;;;30.13;19.27;;;22.20;42.00;;;;;;6061972;28;83197;-67
2022/12/21 01:25:26;;;;;;;29.50;18.50;;;22.20;41.90;;;;;;6074618;28;83132;-66
2022/12/21 01:28:27;;;;;;;31.60;18.67;;;22.10;41.80;;;;;;6075182;28;86000;-69
2022/12/21 01:31:27;;;;;;;29.25;18.55;;;22.10;41.80;;;;;;6074236;28;84909;-68
2022/12/21 01:34:28;;;;;;;28.20;18.00;;;22.10;41.70;;;;;;6076369;28;83070;-61
2022/12/21 01:37:28;;;;;;;32.38;18.40;;;22.10;41.60;;;;;;6075198;28;82998;-61
2022/12/21 01:40:29;;;;;;;28.95;18.25;;;22.10;41.60;;;;;;6075067;28;86537;-60
2022/12/21 01:43:30;;;;;;;30.63;19.52;;;22.10;41.50;;;;;;6075120;28;83534;-60
2022/12/21 01:46:33;;;;;;;29.20;18.52;;;22.10;41.30;;;;;;6086273;28;83417;-59
2022/12/21 01:49:33;;;;;;;30.15;18.88;;;22.10;41.30;;;;;;6071802;28;83266;-62
2022/12/21 01:52:34;;;;;;;28.52;18.65;;;22.10;41.20;;;;;;6050605;28;83484;-63
2022/12/21 01:55:34;;;;;;;26.25;17.45;;;22.10;41.50;;;;;;6054722;28;84438;-62
2022/12/21 01:58:35;;;;;;;29.42;18.23;;;22.10;41.70;;;;;;6078352;28;86409;-63
2022/12/21 02:01:36;;;;;;;27.50;17.75;;;22.10;41.40;;;;;;6097347;28;85991;-62
2022/12/21 02:04:36;;;;;;;28.50;18.35;;;22.10;41.60;;;;;;6095663;28;86511;-63
2022/12/21 02:07:37;;;;;;;29.20;18.40;;;22.10;41.60;;;;;;6096579;28;84002;-63
2022/12/21 02:10:37;;;;;;;29.77;18.27;;;22.10;41.60;;;;;;6080762;28;83555;-59
2022/12/21 02:13:40;;;;;;;31.63;19.63;;;22.10;42.10;;;;;;6095827;28;85121;-58
2022/12/21 02:16:41;;;;;;;29.05;18.45;;;22.10;41.50;;;;;;6098377;28;85067;-59
2022/12/21 02:19:42;;;;;;;30.17;18.98;;;22.10;41.40;;;;;;6098790;28;83346;-58
2022/12/21 02:22:43;;;;;;;31.88;19.77;;;22.10;41.30;;;;;;6088151;28;87139;-59
2022/12/21 02:25:43;;;;;;;26.45;17.38;;;22.10;42.00;;;;;;6089288;28;84054;-58
2022/12/21 02:28:44;;;;;;;29.98;18.60;;;22.10;41.60;;;;;;6056210;28;86707;-67
2022/12/21 02:31:44;;;;;;;30.38;17.90;;;22.10;42.00;;;;;;6062778;28;84763;-65
2022/12/21 02:34:45;;;;;;;26.27;15.90;;;22.10;42.20;;;;;;6056736;28;82956;-67
2022/12/21 02:37:46;;;;;;;26.05;16.55;;;22.10;42.60;;;;;;6071151;28;85704;-67
2022/12/21 02:40:46;;;;;;;23.73;16.08;;;22.10;43.00;;;;;;6065633;28;85864;-68
2022/12/21 02:47:08;;;;;;;23.38;15.35;;;22.10;43.10;;;;;;6074834;28;83102;-69
2022/12/21 02:50:09;;;;;;;24.27;15.32;;;22.10;43.10;;;;;;6078408;28;83583;-71
2022/12/21 02:53:09;;;;;;;23.25;15.23;;;22.10;43.50;;;;;;6082160;28;83210;-70
2022/12/21 02:56:10;;;;;;;23.58;14.90;;;22.10;43.50;;;;;;6085658;28;82733;-69
2022/12/21 02:59:11;;;;;;;22.45;13.85;;;22.10;44.40;;;;;;6097683;28;85911;-68
2022/12/21 03:02:13;;;;;;;20.13;13.80;;;22.10;44.00;;;;;;6080933;28;85011;-74
2022/12/21 03:05:15;;;;;;;20.35;13.70;;;22.10;43.60;;;;;;6070225;28;83265;-66
2022/12/21 03:08:16;;;;;;;22.88;13.85;;;22.10;44.10;;;;;;6055367;28;84856;-68
2022/12/21 03:11:17;;;;;;;22.35;13.63;;;22.10;44.30;;;;;;6081032;28;85647;-68
2022/12/21 03:14:18;;;;;;;23.55;14.13;;;22.10;44.30;;;;;;6071037;28;85884;-69
2022/12/21 03:17:19;;;;;;;21.05;13.38;;;22.10;44.30;;;;;;6057505;28;84150;-69
2022/12/21 03:20:19;;;;;;;23.10;14.27;;;22.10;44.10;;;;;;6082323;28;84360;-71
2022/12/21 03:23:20;;;;;;;21.25;14.15;;;22.10;44.60;;;;;;6058886;28;84808;-61
2022/12/21 03:26:20;;;;;;;21.10;12.50;;;22.10;44.30;;;;;;6057347;28;83054;-59
2022/12/21 03:29:21;;;;;;;22.63;13.80;;;22.10;44.30;;;;;;6054378;28;83240;-61
2022/12/21 03:32:21;;;;;;;22.88;13.82;;;22.10;44.20;;;;;;6074474;28;85083;-60
2022/12/21 03:35:22;;;;;;;20.83;12.98;;;22.10;44.10;;;;;;6090428;28;83489;-61
2022/12/21 03:38:22;;;;;;;20.83;13.63;;;22.10;44.40;;;;;;6077357;28;83361;-61
2022/12/21 03:41:23;;;;;;;21.33;14.38;;;22.10;44.30;;;;;;6076969;28;83614;-67
2022/12/21 03:44:23;;;;;;;22.92;15.13;;;22.10;44.00;;;;;;6065882;28;83577;-67
2022/12/21 03:47:24;;;;;;;23.90;14.68;;;22.10;43.50;;;;;;6075562;28;83097;-67
2022/12/21 03:50:24;;;;;;;22.17;14.65;;;22.10;43.30;;;;;;6068177;28;83296;-67
2022/12/21 03:53:25;;;;;;;22.08;14.88;;;22.10;43.20;;;;;;6058866;28;83530;-67
2022/12/21 03:56:25;;;;;;;25.75;15.48;;;22.10;43.10;;;;;;6064634;28;84377;-67
2022/12/21 03:59:26;;;;;;;26.42;15.25;;;22.10;42.80;;;;;;6058575;28;88695;-71
2022/12/21 04:02:26;;;;;;;24.38;16.10;;;22.10;42.70;;;;;;6059696;28;83379;-69
2022/12/21 04:05:27;;;;;;;25.80;15.98;;;22.10;42.60;;;;;;6072336;28;84072;-68
2022/12/21 04:08:27;;;;;;;24.65;15.68;;;22.10;42.40;;;;;;6066368;28;83534;-68
2022/12/21 04:14:47;;;;;;;25.88;15.73;;;22.10;42.90;;;;;;6067822;28;82959;-67
2022/12/21 04:17:48;;;;;;;26.20;17.08;;;22.20;42.50;;;;;;6072573;28;83103;-68
2022/12/21 04:20:48;;;;;;;26.92;16.58;;;22.10;42.00;;;;;;6067309;28;83083;-67
2022/12/21 04:30:28;;;;;;;27.55;17.60;;;22.30;41.40;;;;;;6052711;28;83179;-65
2022/12/21 04:33:28;;;;;;;27.40;17.17;;;22.40;41.10;;;;;;6062279;28;83121;-68
2022/12/21 04:39:48;;;;;;;25.17;16.13;;;22.50;41.10;;;;;;6080835;28;88299;-59
2022/12/21 04:42:48;;;;;;;25.55;15.90;;;22.60;40.90;;;;;;6083871;28;84243;-59
2022/12/21 04:45:49;;;;;;;26.33;16.00;;;22.60;41.50;;;;;;6086536;28;83782;-59
2022/12/21 04:48:50;;;;;;;25.08;15.75;;;22.70;41.70;;;;;;6069421;28;83328;-58
2022/12/21 04:51:50;;;;;;;26.83;16.05;;;22.70;41.80;;;;;;6069645;28;83608;-60
2022/12/21 04:54:51;;;;;;;23.75;15.07;;;22.70;41.80;;;;;;6070390;28;83641;-60
2022/12/21 04:57:51;;;;;;;23.95;15.13;;;22.80;42.00;;;;;;6079213;28;90699;-60
2022/12/21 05:00:52;;;;;;;23.55;14.15;;;22.80;42.20;;;;;;6086566;28;88278;-60
2022/12/21 05:03:53;;;;;;;25.42;15.10;;;22.80;42.20;;;;;;6063384;28;83201;-63
2022/12/21 05:06:55;;;;;;;26.33;15.68;;;22.90;42.10;;;;;;6057898;28;83332;-63
2022/12/21 05:09:55;;;;;;;25.50;15.75;;;22.80;41.90;;;;;;6069482;28;83419;-62
2022/12/21 05:12:56;;;;;;;25.60;15.40;;;22.90;41.50;;;;;;6066932;28;83624;-62
2022/12/21 05:15:56;;;;;;;28.60;15.55;;;22.90;41.20;;;;;;6065968;28;90360;-61
2022/12/21 05:18:57;;;;;;;30.80;16.95;;;22.90;41.60;;;;;;6072252;28;84426;-61
2022/12/21 05:21:57;;;;;;;24.10;15.10;;;22.90;40.60;;;;;;6063095;28;83232;-61
2022/12/21 05:24:58;;;;;;;24.92;15.68;;;22.90;40.60;;;;;;6078203;28;83824;-60
2022/12/21 05:27:59;;;;;;;27.30;16.25;;;22.90;40.50;;;;;;6062125;28;83091;-62
2022/12/21 05:30:59;;;;;;;25.48;15.38;;;23.00;40.20;;;;;;6072645;28;84182;-61
2022/12/21 05:34:00;;;;;;;27.45;16.65;;;23.00;40.10;;;;;;6059345;28;83844;-62
2022/12/21 05:37:00;;;;;;;29.80;17.15;;;23.00;39.80;;;;;;6077566;28;88834;-66
2022/12/21 05:40:01;;;;;;;31.70;16.70;;;23.00;39.80;;;;;;6078425;28;84987;-68
2022/12/21 05:43:02;;;;;;;26.33;14.82;;;23.10;40.10;;;;;;6062419;28;83494;-65
2022/12/21 05:46:02;;;;;;;22.42;14.07;;;23.00;40.40;;;;;;6071571;28;83203;-67
2022/12/21 05:49:03;;;;;;;23.30;12.85;;;23.00;39.90;;;;;;6061300;28;83457;-64
2022/12/21 05:52:03;;;;;;;20.67;11.63;;;23.00;40.00;;;;;;6073066;28;83237;-67
2022/12/21 05:55:04;;;;;;;18.83;11.30;;;23.00;40.30;;;;;;6086038;28;84216;-65
2022/12/21 05:58:05;;;;;;;18.65;11.05;;;23.00;41.60;;;;;;6067494;28;82873;-63
2022/12/21 06:01:06;;;;;;;17.73;11.25;;;22.90;42.20;;;;;;6060019;28;83365;-69
2022/12/21 06:04:06;;;;;;;16.63;11.02;;;22.90;43.30;;;;;;6070813;28;84095;-64
2022/12/21 06:07:09;;;;;;;25.70;12.02;;;23.00;44.00;;;;;;6077306;28;83864;-73
2022/12/21 06:10:09;;;;;;;23.00;12.30;;;23.00;44.60;;;;;;6077222;28;83485;-62
2022/12/21 06:13:10;;;;;;;16.73;10.95;;;23.00;45.00;;;;;;6100179;28;83860;-60
2022/12/21 06:16:10;;;;;;;20.67;11.27;;;23.00;45.40;;;;;;6088745;28;83579;-63
2022/12/21 06:19:12;;;;;;;16.05;10.65;;;23.00;45.50;;;;;;6067498;28;85615;-68
2022/12/21 06:22:12;;;;;;;19.75;12.13;;;23.00;45.70;;;;;;6066675;28;86198;-66
2022/12/21 06:25:13;;;;;;;19.17;11.85;;;22.90;45.90;;;;;;6068610;28;84306;-65
2022/12/21 06:28:13;;;;;;;18.63;10.32;;;22.90;46.10;;;;;;6059209;28;88285;-67
2022/12/21 06:31:14;;;;;;;20.05;10.57;;;22.80;46.40;;;;;;6056824;28;83137;-66
2022/12/21 06:34:14;;;;;;;17.88;9.60;;;22.80;46.90;;;;;;6059094;28;83835;-67
2022/12/21 06:37:15;;;;;;;17.52;9.38;;;22.80;47.10;;;;;;6065733;28;82907;-64
2022/12/21 06:40:15;;;;;;;14.93;8.10;;;22.80;47.40;;;;;;6069033;28;81301;-64
2022/12/21 06:43:16;;;;;;;13.02;8.48;;;22.80;47.40;;;;;;6054596;28;82477;-64
2022/12/21 06:46:16;;;;;;;14.52;9.10;;;22.70;47.50;;;;;;6075389;28;81491;-62
2022/12/21 06:49:17;;;;;;;17.80;8.95;;;22.70;47.50;;;;;;6067938;28;80942;-65
2022/12/21 06:52:17;;;;;;;14.02;8.40;;;22.60;48.20;;;;;;6064091;28;82272;-65
2022/12/21 06:55:18;;;;;;;16.77;8.70;;;22.70;48.40;;;;;;6059494;28;81731;-66
2022/12/21 06:58:18;;;;;;;15.20;8.77;;;22.70;48.70;;;;;;6060821;28;80481;-64
2022/12/21 07:01:19;;;;;;;14.82;8.88;;;22.70;48.80;;;;;;6075492;28;81559;-64
2022/12/21 07:04:20;;;;;;;14.88;9.05;;;22.70;48.80;;;;;;6065104;28;81268;-65
2022/12/21 07:07:21;;;;;;;13.15;7.68;;;22.70;48.80;;;;;;6066926;28;82031;-70
2022/12/21 07:10:21;;;;;;;15.40;9.32;;;22.70;48.70;;;;;;6070300;28;83750;-61
2022/12/21 07:13:22;;;;;;;14.00;8.57;;;22.70;48.60;;;;;;6076347;28;80579;-67
2022/12/21 07:16:22;;;;;;;13.95;9.05;;;22.60;48.70;;;;;;6063008;28;80823;-66
2022/12/21 07:19:23;;;;;;;13.27;8.90;;;22.70;48.80;;;;;;6073931;28;82598;-66
2022/12/21 07:22:23;;;;;;;12.40;8.48;;;22.70;48.60;;;;;;6073199;28;82563;-66
2022/12/21 07:25:24;;;;;;;13.02;9.00;;;22.60;48.50;;;;;;6077428;28;80857;-66
2022/12/21 07:28:24;;;;;;;14.10;8.48;;;22.60;48.30;;;;;;6078354;28;80592;-67
2022/12/21 07:31:25;;;;;;;15.75;9.25;;;22.60;48.50;;;;;;6078524;28;80608;-67
2022/12/21 07:34:25;;;;;;;12.20;8.18;;;22.60;48.40;;;;;;6065992;28;80557;-67
2022/12/21 07:37:26;;;;;;;14.00;8.85;;;22.50;48.50;;;;;;6078162;28;81216;-67
2022/12/21 07:40:26;;;;;;;15.23;8.98;;;22.50;49.00;;;;;;6073376;28;80694;-65
2022/12/21 07:43:27;;;;;;;12.20;8.18;;;22.50;48.30;;;;;;6076256;28;80488;-66
2022/12/21 07:47:00;;;;;;;12.82;8.35;;;22.50;48.30;;;;;;6097783;28;81420;-66
2022/12/21 07:50:00;;;;;;;13.00;8.70;;;22.50;48.50;;;;;;6079541;28;83234;-66
2022/12/21 07:53:01;;;;;;;12.07;7.95;;;22.40;48.50;;;;;;6080948;28;80569;-65
2022/12/21 07:56:02;;;;;;;14.65;9.00;;;22.40;48.50;;;;;;6081394;28;80729;-66
2022/12/21 07:59:02;;;;;;;11.88;8.63;;;22.40;48.10;;;;;;6082500;28;80736;-67
2022/12/21 08:02:03;;;;;;;13.48;8.75;;;22.30;48.40;;;;;;6070034;28;81291;-66
2022/12/21 08:05:04;;;;;;;11.00;7.32;;;22.20;48.30;;;;;;6075919;28;80504;-66
2022/12/21 08:08:05;;;;;;;15.90;8.35;;;22.20;48.80;;;;;;6079675;28;80438;-66
2022/12/21 08:11:06;;;;;;;11.65;7.65;;;22.20;49.30;;;;;;6080896;28;81257;-66
2022/12/21 08:14:06;;;;;;;12.40;7.65;;;22.30;48.90;;;;;;6082236;28;87425;-66
2022/12/21 08:17:07;;;;;;;14.63;9.30;;;22.30;48.90;;;;;;6092037;28;83615;-64
2022/12/21 08:20:07;;;;;;;13.77;8.35;;;22.30;48.60;;;;;;6081427;28;80393;-65
2022/12/21 08:23:08;;;;;;;13.25;9.10;;;22.30;48.70;;;;;;6069511;28;81006;-65
2022/12/21 08:26:08;;;;;;;13.38;8.50;;;22.30;48.50;;;;;;6079918;28;80843;-65
2022/12/21 08:29:09;;;;;;;12.15;8.40;;;22.20;48.70;;;;;;6057412;28;88752;-67
2022/12/21 08:32:09;;;;;;;15.93;9.02;;;22.20;48.90;;;;;;6054847;28;81223;-64
2022/12/21 08:35:10;;;;;;;14.38;8.35;;;22.20;48.90;;;;;;6056333;28;80636;-65
2022/12/21 08:38:11;;;;;;;14.68;8.65;;;22.20;49.10;;;;;;6059900;28;81128;-66
2022/12/21 08:41:11;;;;;;;12.23;7.70;;;22.30;49.00;;;;;;6065786;28;83059;-66
2022/12/21 08:44:12;;;;;;;12.55;7.90;;;22.30;48.80;;;;;;6065306;28;81879;-68
2022/12/21 08:47:12;;;;;;;14.20;8.65;;;22.40;48.70;;;;;;6073948;28;80828;-67
2022/12/21 08:50:13;;;;;;;13.60;7.93;;;22.50;48.80;;;;;;6068996;28;81873;-68
2022/12/21 08:53:13;;;;;;;15.00;9.40;;;22.50;48.90;;;;;;6070704;28;83201;-67
2022/12/21 08:56:14;;;;;;;14.82;9.02;;;22.50;48.40;;;;;;6065979;28;80955;-67
2022/12/21 08:59:16;;;;;;;12.13;8.95;;;22.50;48.80;;;;;;6082522;28;81424;-67
2022/12/21 09:02:16;;;;;;;13.00;8.48;;;22.50;48.80;;;;;;6071727;28;81907;-66
2022/12/21 09:05:17;;;;;;;11.73;7.53;;;22.50;49.30;;;;;;6057330;28;84002;-65
2022/12/21 09:08:17;;;;;;;10.77;7.18;;;22.50;49.70;;;;;;6062358;28;80428;-64
2022/12/21 09:11:19;;;;;;;14.02;7.95;;;22.50;49.60;;;;;;6061007;28;84128;-64
2022/12/21 09:14:19;;;;;;;10.82;7.45;;;22.50;49.30;;;;;;6064563;28;80870;-61
2022/12/21 09:17:20;;;;;;;10.70;7.03;;;22.60;49.70;;;;;;6063016;28;81132;-64
2022/12/21 09:20:20;;;;;;;10.35;6.82;;;22.70;49.70;;;;;;6070980;28;80106;-61
2022/12/21 09:23:21;;;;;;;10.88;7.40;;;22.70;49.50;;;;;;6067434;28;87465;-64
2022/12/21 09:26:22;;;;;;;10.57;7.28;;;22.70;50.10;;;;;;6064035;28;82748;-64
2022/12/21 09:29:23;;;;;;;12.68;6.93;;;22.80;49.50;;;;;;6085129;28;80947;-60
2022/12/21 09:32:24;;;;;;;12.00;7.32;;;22.80;49.70;;;;;;6065830;28;83935;-63
2022/12/21 09:35:24;;;;;;;10.93;7.32;;;22.80;49.90;;;;;;6067357;28;81986;-65
2022/12/21 09:38:25;;;;;;;12.02;6.80;;;22.80;49.70;;;;;;6070685;28;80413;-64
2022/12/21 09:41:25;;;;;;;10.98;7.35;;;22.80;49.60;;;;;;6068765;28;80576;-65
2022/12/21 09:44:26;;;;;;;10.65;7.57;;;22.80;49.50;;;;;;6080348;28;80440;-64
2022/12/21 09:47:26;;;;;;;9.40;6.90;;;22.80;49.50;;;;;;6075725;28;81496;-64
2022/12/21 09:50:27;;;;;;;10.90;7.43;;;22.80;49.40;;;;;;6082836;28;80329;-66
2022/12/21 09:53:28;;;;;;;11.65;7.80;;;22.80;49.40;;;;;;6082176;28;81691;-66
2022/12/21 09:56:28;;;;;;;13.15;7.28;;;22.80;49.40;;;;;;6083106;28;80963;-66
2022/12/21 09:59:29;;;;;;;10.95;6.88;;;22.80;50.00;;;;;;6073035;28;81322;-67
2022/12/21 10:02:29;;;;;;;12.75;7.00;;;22.80;49.30;;;;;;6072795;28;83598;-66
2022/12/21 10:05:30;;;;;;;11.40;6.97;;;22.80;49.50;;;;;;6069676;28;80863;-68
2022/12/21 10:08:30;;;;;;;9.30;7.00;;;22.80;49.60;;;;;;6080769;28;82632;-67
2022/12/21 10:11:31;;;;;;;12.02;7.32;;;22.80;49.60;;;;;;6093237;28;80932;-66
2022/12/21 10:14:31;;;;;;;11.57;7.78;;;22.80;49.60;;;;;;6077403;28;80702;-66
2022/12/21 10:17:32;;;;;;;11.07;6.93;;;22.80;49.70;;;;;;6076222;28;80544;-67
2022/12/21 10:20:33;;;;;;;10.82;7.13;;;22.70;49.90;;;;;;6083082;28;82944;-65
2022/12/21 10:23:33;;;;;;;9.38;6.63;;;22.80;49.90;;;;;;6082622;28;81545;-66
2022/12/21 10:26:34;;;;;;;10.95;7.40;;;22.70;49.90;;;;;;6082850;28;81534;-63
2022/12/21 10:29:34;;;;;;;14.63;7.55;;;22.70;49.90;;;;;;6081571;28;82640;-64
2022/12/21 10:32:35;;;;;;;11.93;6.97;;;22.70;50.50;;;;;;6070803;28;81174;-63
2022/12/21 10:35:35;;;;;;;11.13;7.85;;;22.70;50.60;;;;;;6081964;28;80845;-64
2022/12/21 10:38:36;;;;;;;12.80;8.15;;;22.70;50.70;;;;;;6081895;28;80504;-63
2022/12/21 10:41:36;;;;;;;15.30;7.57;;;22.60;50.90;;;;;;6082634;28;87433;-63
2022/12/21 10:44:37;;;;;;;14.05;8.80;;;22.60;51.20;;;;;;6083295;28;80228;-65
2022/12/21 10:47:40;;;;;;;13.07;8.70;;;22.60;51.30;;;;;;6093533;28;80415;-64
2022/12/21 10:50:40;;;;;;;12.10;8.20;;;22.60;51.90;;;;;;6069134;28;80563;-64
2022/12/21 10:53:41;;;;;;;15.32;10.00;;;22.60;51.90;;;;;;6091193;28;81282;-64
2022/12/21 10:56:41;;;;;;;13.00;9.30;;;22.70;51.70;;;;;;6094243;28;83495;-68
2022/12/21 10:59:42;;;;;;;13.75;9.20;;;22.70;51.80;;;;;;6077159;28;83001;-65
2022/12/21 11:02:42;;;;;;;15.07;8.50;;;22.70;51.80;;;;;;6075231;28;81696;-61
2022/12/21 11:05:43;;;;;;;12.35;8.38;;;22.70;51.70;;;;;;6091927;28;80502;-62
2022/12/21 11:08:44;;;;;;;14.27;7.90;;;22.70;51.90;;;;;;6082880;28;83094;-63
2022/12/21 11:11:45;;;;;;;20.17;7.40;;;22.70;52.00;;;;;;6055438;28;83081;-61
2022/12/21 11:14:45;;;;;;;11.05;7.07;;;22.70;52.20;;;;;;6049223;28;80453;-61
2022/12/21 11:17:46;;;;;;;10.48;7.47;;;22.60;52.20;;;;;;6053744;28;80468;-61
2022/12/21 11:20:47;;;;;;;15.40;7.60;;;22.60;52.00;;;;;;6065863;28;84772;-65
2022/12/21 11:23:48;;;;;;;15.18;7.72;;;22.60;52.30;;;;;;6065304;28;80545;-65
2022/12/21 11:26:48;;;;;;;13.05;8.38;;;22.60;52.10;;;;;;6065252;28;80341;-65
2022/12/21 11:29:49;;;;;;;14.35;7.63;;;22.50;52.00;;;;;;6058042;28;81755;-66
2022/12/21 11:32:49;;;;;;;10.55;7.25;;;22.50;52.20;;;;;;6074282;28;80360;-62
2022/12/21 11:35:50;;;;;;;11.45;7.97;;;22.50;52.30;;;;;;6071205;28;81353;-64
2022/12/21 11:38:50;;;;;;;24.73;7.95;;;22.50;52.20;;;;;;6083088;28;81964;-62
2022/12/21 11:41:51;;;;;;;10.50;7.65;;;22.50;51.90;;;;;;6071260;28;80709;-61
2022/12/21 11:44:51;;;;;;;10.10;7.47;;;22.50;51.90;;;;;;6075041;28;80879;-61
2022/12/21 11:47:52;;;;;;;11.65;7.70;;;22.50;51.90;;;;;;6072308;28;80785;-63
2022/12/21 11:50:53;;;;;;;11.00;7.97;;;22.50;51.80;;;;;;6081811;28;81616;-63
2022/12/21 11:53:53;;;;;;;12.35;8.50;;;22.50;51.90;;;;;;6081677;28;81424;-63
2022/12/21 11:56:54;;;;;;;14.20;9.10;;;22.50;51.80;;;;;;6076135;28;80556;-62
2022/12/21 11:59:54;;;;;;;14.27;9.00;;;22.40;51.50;;;;;;6072036;28;81231;-63
2022/12/21 12:02:55;;;;;;;12.60;8.40;;;22.40;51.40;;;;;;6072485;28;80584;-64
2022/12/21 12:05:55;;;;;;;13.07;8.63;;;22.40;51.60;;;;;;6079935;28;80574;-65
2022/12/21 12:08:56;;;;;;;12.23;8.13;;;22.40;51.60;;;;;;6083932;28;81005;-64
2022/12/21 12:11:56;;;;;;;9.93;7.40;;;22.40;51.80;;;;;;6080528;28;81628;-64
2022/12/21 12:14:57;;;;;;;11.02;7.20;;;22.40;51.80;;;;;;6081284;28;80941;-64
2022/12/21 12:17:57;;;;;;;11.93;7.30;;;22.40;51.80;;;;;;6086890;28;81007;-64
2022/12/21 12:20:58;;;;;;;12.57;8.38;;;22.40;51.80;;;;;;6085010;28;82141;-64
2022/12/21 12:23:58;;;;;;;15.27;8.55;;;22.40;51.60;;;;;;6080173;28;81044;-65
2022/12/21 12:26:59;;;;;;;12.82;8.63;;;22.40;51.50;;;;;;6080804;28;80313;-64
2022/12/21 12:29:59;;;;;;;12.77;8.20;;;22.50;51.50;;;;;;6066568;28;80232;-64
2022/12/21 12:33:00;;;;;;;16.70;9.68;;;22.50;51.40;;;;;;6081644;28;83797;-65
2022/12/21 12:36:01;;;;;;;14.20;9.32;;;22.50;51.30;;;;;;6092890;28;80864;-63
2022/12/21 12:39:01;;;;;;;16.95;10.13;;;22.50;51.20;;;;;;6089047;28;80802;-64
2022/12/21 12:42:02;;;;;;;15.68;9.88;;;22.50;51.10;;;;;;6079290;28;83010;-64
2022/12/21 12:45:03;;;;;;;14.15;9.07;;;22.50;51.10;;;;;;6097738;28;83036;-64
2022/12/21 12:48:03;;;;;;;15.55;9.73;;;22.60;51.00;;;;;;6087381;28;80731;-64
2022/12/21 12:51:04;;;;;;;14.35;10.02;;;22.60;50.90;;;;;;6080063;28;80635;-64
2022/12/21 12:54:04;;;;;;;14.18;9.57;;;22.60;50.90;;;;;;6076786;28;84911;-65
2022/12/21 12:57:05;;;;;;;14.13;9.55;;;22.60;50.90;;;;;;6080846;28;83516;-65
2022/12/21 13:00:08;;;;;;;15.27;9.85;;;22.60;50.90;;;;;;6084618;28;80433;-65
2022/12/21 13:03:08;;;;;;;15.30;9.82;;;22.60;50.90;;;;;;6074066;28;81209;-64
2022/12/21 13:06:09;;;;;;;16.40;10.52;;;22.60;51.50;;;;;;6066616;28;81180;-64
2022/12/21 13:09:10;;;;;;;14.52;10.02;;;22.70;51.00;;;;;;6063715;28;83873;-64
2022/12/21 13:12:11;;;;;;;14.90;10.00;;;22.70;50.80;;;;;;6077511;28;83206;-64
2022/12/21 13:15:11;;;;;;;14.70;9.68;;;22.60;50.80;;;;;;6062898;28;84477;-63
2022/12/21 13:18:14;;;;;;;16.52;9.68;;;22.70;50.70;;;;;;6079769;28;83095;-62
2022/12/21 13:21:15;;;;;;;14.02;9.60;;;22.60;50.60;;;;;;6054416;28;82399;-64
2022/12/21 13:24:16;;;;;;;18.00;10.85;;;22.60;50.60;;;;;;6063331;28;81735;-64
2022/12/21 13:27:16;;;;;;;16.40;10.77;;;22.70;50.30;;;;;;6067468;28;84129;-64
2022/12/21 13:30:17;;;;;;;18.00;12.07;;;22.70;49.80;;;;;;6061219;28;84247;-64
2022/12/21 13:33:17;;;;;;;19.38;12.15;;;22.70;49.10;;;;;;6064911;28;84450;-64
2022/12/21 13:36:18;;;;;;;18.98;12.45;;;22.80;48.60;;;;;;6081303;28;85085;-64
2022/12/21 13:39:18;;;;;;;22.33;13.40;;;22.80;47.70;;;;;;6047946;28;83540;-63
2022/12/21 13:42:19;;;;;;;27.05;15.20;;;22.80;47.60;;;;;;6062264;28;84950;-65
2022/12/21 13:45:19;;;;;;;23.35;15.18;;;22.80;47.60;;;;;;6065934;28;83194;-64
2022/12/21 13:48:20;;;;;;;23.05;14.98;;;22.80;47.30;;;;;;6070227;28;83181;-63
2022/12/21 13:51:20;;;;;;;26.13;16.48;;;22.80;47.10;;;;;;6071507;28;83565;-64
2022/12/21 13:54:21;;;;;;;25.60;16.50;;;22.80;47.40;;;;;;6075365;28;83549;-64
2022/12/21 13:57:21;;;;;;;28.70;17.35;;;22.80;46.50;;;;;;6072611;28;83841;-64
2022/12/21 14:00:22;;;;;;;26.60;17.05;;;22.70;46.20;;;;;;6064944;28;83029;-64
2022/12/21 14:03:22;;;;;;;30.58;17.67;;;22.70;46.20;;;;;;6071634;28;82855;-64
2022/12/21 14:06:23;;;;;;;29.02;18.05;;;22.70;45.60;;;;;;6074383;28;83557;-66
2022/12/21 14:09:23;;;;;;;29.23;18.27;;;22.70;45.40;;;;;;6090411;28;82993;-66
2022/12/21 14:12:24;;;;;;;32.80;20.13;;;22.70;44.70;;;;;;6073747;28;83533;-65
2022/12/21 14:15:25;;;;;;;29.40;18.90;;;22.60;44.50;;;;;;6069364;28;83180;-64
2022/12/21 14:18:25;;;;;;;27.55;18.33;;;22.60;44.70;;;;;;6086554;28;82860;-66
2022/12/21 14:21:26;;;;;;;28.92;18.48;;;22.60;44.60;;;;;;6111244;28;84622;-65
2022/12/21 14:24:26;;;;;;;27.25;17.55;;;22.60;44.80;;;;;;6078406;28;83702;-64
2022/12/21 14:27:27;;;;;;;33.58;19.88;;;22.60;44.80;;;;;;6078652;28;83002;-64
2022/12/21 14:30:28;;;;;;;28.60;17.00;;;22.60;44.50;;;;;;6067830;28;84814;-64
2022/12/21 14:33:28;;;;;;;30.02;17.75;;;22.50;45.30;;;;;;6052036;28;84524;-64
2022/12/21 14:36:29;;;;;;;29.48;18.42;;;22.60;45.40;;;;;;6062411;28;83368;-64
2022/12/21 14:39:29;;;;;;;37.75;18.73;;;22.50;45.60;;;;;;6069757;28;86187;-65
2022/12/21 14:42:30;;;;;;;44.90;20.90;;;22.50;45.40;;;;;;6059915;28;84674;-65
2022/12/21 14:45:30;;;;;;;45.95;23.00;;;22.50;46.40;;;;;;6034872;28;89269;-62
2022/12/21 14:48:31;;;;;;;46.88;22.80;;;22.50;46.90;;;;;;6058606;28;83533;-63
2022/12/21 14:51:32;;;;;;;43.47;22.67;;;22.60;46.90;;;;;;6059083;28;83582;-62
2022/12/21 14:54:32;;;;;;;40.58;22.27;;;22.60;46.50;;;;;;6078155;28;83382;-62
2022/12/21 14:57:33;;;;;;;35.40;19.45;;;22.60;46.30;;;;;;6079269;28;83325;-63
2022/12/21 15:00:34;;;;;;;30.75;16.85;;;22.50;47.10;;;;;;6068405;28;84186;-65
2022/12/21 15:03:34;;;;;;;26.17;14.68;;;22.40;47.70;;;;;;6055097;28;85867;-65
2022/12/21 15:06:35;;;;;;;26.55;14.35;;;22.30;48.10;;;;;;6062093;28;84226;-63
2022/12/21 15:09:35;;;;;;;20.55;11.98;;;22.20;48.80;;;;;;6070361;28;82768;-65
2022/12/21 15:12:36;;;;;;;17.38;10.57;;;22.20;49.60;;;;;;6079880;28;84040;-63
2022/12/21 15:15:36;;;;;;;22.00;11.15;;;22.30;49.60;;;;;;6073287;28;89072;-64
2022/12/21 15:18:38;;;;;;;16.83;10.75;;;22.30;49.60;;;;;;6077145;28;83061;-63
2022/12/21 15:21:39;;;;;;;16.90;10.15;;;22.30;49.80;;;;;;6067570;28;83850;-63
2022/12/21 15:24:41;;;;;;;20.02;11.23;;;22.30;50.10;;;;;;6078212;28;84492;-63
2022/12/21 15:27:42;;;;;;;15.48;9.65;;;22.30;50.20;;;;;;6082696;28;89815;-63
2022/12/21 15:30:42;;;;;;;14.88;9.35;;;22.30;50.30;;;;;;6114419;28;83121;-63
2022/12/21 15:33:44;;;;;;;13.57;9.32;;;22.20;50.50;;;;;;6099606;28;80723;-64
2022/12/21 15:36:45;;;;;;;16.52;9.82;;;22.20;50.80;;;;;;6116650;28;80704;-64